Miami Springs, Florida
Current Conditions -  °F | °C
As of 6:53 AM on Sunday 25 Jan 2015 (Local Time) from KMIA Reporting Station
Few Clouds Few Clouds  
Wind Chill: 53°   Ceiling: Unl
Heat Index: 53°   Visibility: 10mi
Dew Point: 48°   Wind: 5mph
Humidity: 83%   Direction: 330°NNW
Pressure: 30.08"   Gusts: NA
Location:  25.82°N, 80.28°W
Report Text: KMIA 251153Z 33004KT 10SM FEW020 12/09 A3008 RMK AO2 SLP184 T01170089 10144 20117 53015
Loading
Personal Weather Stations






























Interactive Weather Map New forecast layout! Learn more

10-Day Weather Forecast

Advertisements
Track Severe Weather on mobile